Time;durP1;ratioP1;P1;durP2;ratioP2;P2;SDS_P1;SDS_P2;PMS_P1;PMS_P2;Temp;Humidity;BMP_temperature;BMP_pressure;BME280_temperature;BME280_humidity;BME280_pressure;Samples;Min_cycle;Max_cycle;Signal;HPM_P1;HPM_P2
2023/06/12 00:02:07;;;;;;;5.55;4.18;;;;;;;;;;5061654;28;25073;-71
2023/06/12 00:04:33;;;;;;;7.30;4.63;;;;;;;;;;5063452;28;25044;-73
2023/06/12 00:06:59;;;;;;;7.70;4.22;;;;;;;;;;5059308;28;25061;-73
2023/06/12 00:09:26;;;;;;;7.88;4.55;;;;;;;;;;5065203;28;25081;-72
2023/06/12 00:11:52;;;;;;;9.57;4.07;;;;;;;;;;5079729;28;25076;-74
2023/06/12 00:14:18;;;;;;;8.80;5.38;;;;;;;;;;5085387;28;25072;-72
2023/06/12 00:16:44;;;;;;;7.50;4.22;;;;;;;;;;5084341;28;25058;-72
2023/06/12 00:19:11;;;;;;;7.45;4.60;;;;;;;;;;5082286;28;25072;-72
2023/06/12 00:21:37;;;;;;;8.57;4.65;;;;;;;;;;5091094;28;25065;-74
2023/06/12 00:24:08;;;;;;;6.88;4.57;;;;;;;;;;5081346;28;25064;-72
2023/06/12 00:26:34;;;;;;;6.20;3.75;;;;;;;;;;5081001;28;25095;-72
2023/06/12 00:29:00;;;;;;;7.03;4.57;;;;;;;;;;5064944;28;25077;-73
2023/06/12 00:31:26;;;;;;;7.07;4.05;;;;;;;;;;5073309;28;25167;-71
2023/06/12 00:33:52;;;;;;;8.52;4.47;;;;;;;;;;5061173;28;25063;-71
2023/06/12 00:36:18;;;;;;;8.43;4.15;;;;;;;;;;5064591;28;25099;-73
2023/06/12 00:38:44;;;;;;;9.85;5.00;;;;;;;;;;5060375;28;25139;-72
2023/06/12 00:41:10;;;;;;;9.43;4.53;;;;;;;;;;5059893;28;25165;-72
2023/06/12 00:43:36;;;;;;;8.90;4.47;;;;;;;;;;5052459;28;25074;-72
2023/06/12 00:46:04;;;;;;;6.13;4.22;;;;;;;;;;5063905;28;25063;-74
2023/06/12 00:48:30;;;;;;;7.70;4.47;;;;;;;;;;5060060;28;25105;-73
2023/06/12 00:50:57;;;;;;;6.22;4.20;;;;;;;;;;5061696;28;25088;-73
2023/06/12 00:53:23;;;;;;;6.90;5.15;;;;;;;;;;5063530;28;25116;-72
2023/06/12 00:55:49;;;;;;;4.95;4.30;;;;;;;;;;5061984;28;25074;-73
2023/06/12 00:58:15;;;;;;;5.47;4.30;;;;;;;;;;5065648;28;25057;-73
2023/06/12 01:00:43;;;;;;;7.38;4.68;;;;;;;;;;5066813;28;25054;-74
2023/06/12 01:03:12;;;;;;;7.15;4.38;;;;;;;;;;5065762;28;25059;-74
2023/06/12 01:05:42;;;;;;;5.68;4.45;;;;;;;;;;5067747;28;25092;-73
2023/06/12 01:08:15;;;;;;;7.78;4.15;;;;;;;;;;5069181;28;25073;-73
2023/06/12 01:10:41;;;;;;;10.35;4.68;;;;;;;;;;5063247;28;25099;-74
2023/06/12 01:13:11;;;;;;;10.80;4.88;;;;;;;;;;5061785;28;25088;-72
2023/06/12 01:15:37;;;;;;;6.72;4.88;;;;;;;;;;5065118;28;25070;-73
2023/06/12 01:18:06;;;;;;;6.90;4.85;;;;;;;;;;5064675;28;25063;-73
2023/06/12 01:20:33;;;;;;;7.80;4.97;;;;;;;;;;5046102;28;25059;-72
2023/06/12 01:23:03;;;;;;;8.48;4.38;;;;;;;;;;5063734;28;25056;-74
2023/06/12 01:25:49;;;;;;;5.82;4.22;;;;;;;;;;5065639;28;25149;-73
2023/06/12 01:28:15;;;;;;;10.05;4.85;;;;;;;;;;5020043;28;25057;-73
2023/06/12 01:30:49;;;;;;;5.45;4.00;;;;;;;;;;5046482;28;25127;-73
2023/06/12 01:33:17;;;;;;;7.45;4.82;;;;;;;;;;5044634;28;25113;-74
2023/06/12 01:35:46;;;;;;;6.43;4.50;;;;;;;;;;5048569;28;25076;-74
2023/06/12 01:38:16;;;;;;;5.85;4.68;;;;;;;;;;5061583;28;25080;-72
2023/06/12 01:40:44;;;;;;;7.13;4.75;;;;;;;;;;5065335;28;25079;-73
2023/06/12 01:43:10;;;;;;;7.47;4.80;;;;;;;;;;5047055;28;25083;-73
2023/06/12 01:45:37;;;;;;;8.77;4.18;;;;;;;;;;5066255;28;25053;-71
2023/06/12 01:48:04;;;;;;;8.55;4.35;;;;;;;;;;5062282;28;25111;-74
2023/06/12 01:50:30;;;;;;;6.57;4.22;;;;;;;;;;5063423;28;25068;-73
2023/06/12 01:52:56;;;;;;;8.00;4.72;;;;;;;;;;5063840;28;25075;-73
2023/06/12 01:55:22;;;;;;;9.25;4.72;;;;;;;;;;5063255;28;25103;-73
2023/06/12 01:57:48;;;;;;;6.55;4.95;;;;;;;;;;5063299;28;25054;-73
2023/06/12 02:00:15;;;;;;;6.60;5.03;;;;;;;;;;5063946;28;25119;-71
2023/06/12 02:02:42;;;;;;;7.78;4.97;;;;;;;;;;5062262;28;25057;-73
2023/06/12 02:05:08;;;;;;;8.80;4.95;;;;;;;;;;5063782;28;25049;-73
2023/06/12 02:07:34;;;;;;;9.45;4.38;;;;;;;;;;5048070;28;25074;-72
2023/06/12 02:10:00;;;;;;;8.10;5.40;;;;;;;;;;5055835;28;25080;-72
2023/06/12 02:12:26;;;;;;;5.32;4.50;;;;;;;;;;5067947;28;25101;-72
2023/06/12 02:14:53;;;;;;;10.50;5.15;;;;;;;;;;5068895;28;25081;-73
2023/06/12 02:17:19;;;;;;;8.20;4.55;;;;;;;;;;5058168;28;25122;-73
2023/06/12 02:19:46;;;;;;;8.98;4.95;;;;;;;;;;5076862;28;25063;-73
2023/06/12 02:22:12;;;;;;;8.27;5.43;;;;;;;;;;5074054;28;25060;-73
2023/06/12 02:24:39;;;;;;;6.90;4.93;;;;;;;;;;5065125;28;25078;-72
2023/06/12 02:27:05;;;;;;;8.50;5.07;;;;;;;;;;5065769;28;25044;-74
2023/06/12 02:29:31;;;;;;;10.30;5.32;;;;;;;;;;5063483;28;25136;-73
2023/06/12 02:31:57;;;;;;;8.75;4.68;;;;;;;;;;5063394;28;25049;-74
2023/06/12 02:34:23;;;;;;;8.10;4.53;;;;;;;;;;5060602;28;25122;-73
2023/06/12 02:36:49;;;;;;;7.72;4.93;;;;;;;;;;5063405;28;25065;-72
2023/06/12 02:39:16;;;;;;;9.68;5.32;;;;;;;;;;5062203;28;25056;-73
2023/06/12 02:41:51;;;;;;;9.63;4.93;;;;;;;;;;5062180;28;25094;-72
2023/06/12 02:44:17;;;;;;;8.48;5.32;;;;;;;;;;5060474;28;25066;-73
2023/06/12 02:46:51;;;;;;;8.82;5.28;;;;;;;;;;5061338;28;25083;-72
2023/06/12 02:49:18;;;;;;;6.78;5.13;;;;;;;;;;5060178;28;25129;-73
2023/06/12 02:51:44;;;;;;;8.55;4.65;;;;;;;;;;5062776;28;25138;-73
2023/06/12 02:54:10;;;;;;;9.52;4.82;;;;;;;;;;5062485;28;25074;-73
2023/06/12 02:56:36;;;;;;;9.68;5.35;;;;;;;;;;5061876;28;25127;-72
2023/06/12 02:59:03;;;;;;;9.18;5.03;;;;;;;;;;5060288;28;25056;-72
2023/06/12 03:01:30;;;;;;;10.95;5.05;;;;;;;;;;5061534;28;25071;-72
2023/06/12 03:03:56;;;;;;;14.57;5.22;;;;;;;;;;5061621;28;25065;-72
2023/06/12 03:06:28;;;;;;;8.85;5.22;;;;;;;;;;5061809;28;25143;-72
2023/06/12 03:08:55;;;;;;;10.63;4.93;;;;;;;;;;5045102;28;25089;-72
2023/06/12 03:11:22;;;;;;;7.88;4.93;;;;;;;;;;5047852;28;25090;-73
2023/06/12 03:13:48;;;;;;;7.65;5.40;;;;;;;;;;5056635;28;25068;-72
2023/06/12 03:16:14;;;;;;;9.55;4.95;;;;;;;;;;5030559;28;25075;-73
2023/06/12 03:18:40;;;;;;;5.95;4.82;;;;;;;;;;5042294;28;25068;-72
2023/06/12 03:21:07;;;;;;;8.82;5.15;;;;;;;;;;5029378;28;25128;-72
2023/06/12 03:23:33;;;;;;;8.10;5.30;;;;;;;;;;5048274;28;25095;-73
2023/06/12 03:25:59;;;;;;;9.60;5.47;;;;;;;;;;5047131;28;25118;-74
2023/06/12 03:28:24;;;;;;;10.52;5.70;;;;;;;;;;5043137;28;25132;-72
2023/06/12 03:30:51;;;;;;;6.78;4.85;;;;;;;;;;5043188;28;25077;-71
2023/06/12 03:33:17;;;;;;;8.55;4.68;;;;;;;;;;5043245;28;25082;-73
2023/06/12 03:35:43;;;;;;;9.15;5.05;;;;;;;;;;5028752;28;25069;-73
2023/06/12 03:38:10;;;;;;;8.25;5.50;;;;;;;;;;5042136;28;25057;-73
2023/06/12 03:40:36;;;;;;;12.25;4.75;;;;;;;;;;5047027;28;25056;-73
2023/06/12 03:43:02;;;;;;;8.65;4.72;;;;;;;;;;5043643;28;25056;-73
2023/06/12 03:45:28;;;;;;;13.07;4.93;;;;;;;;;;5045153;28;25056;-73
2023/06/12 03:47:54;;;;;;;6.72;5.20;;;;;;;;;;5045395;28;25060;-74
2023/06/12 03:50:22;;;;;;;6.43;4.90;;;;;;;;;;5044699;28;25076;-73
2023/06/12 03:52:48;;;;;;;9.65;5.03;;;;;;;;;;5042263;28;25072;-72
2023/06/12 03:55:14;;;;;;;9.20;5.35;;;;;;;;;;5041062;28;25055;-72
2023/06/12 03:57:39;;;;;;;6.60;5.45;;;;;;;;;;5042546;28;25077;-72
2023/06/12 04:00:07;;;;;;;7.25;5.13;;;;;;;;;;5040568;28;25068;-73
2023/06/12 04:02:33;;;;;;;5.85;4.65;;;;;;;;;;5043204;28;25054;-73
2023/06/12 04:05:00;;;;;;;8.85;5.18;;;;;;;;;;5043074;28;25060;-72
2023/06/12 04:07:26;;;;;;;10.68;5.32;;;;;;;;;;5048454;28;25069;-73
2023/06/12 04:09:52;;;;;;;9.93;4.50;;;;;;;;;;5062410;28;25050;-69
2023/06/12 04:12:18;;;;;;;8.15;5.60;;;;;;;;;;5061704;28;25066;-74
2023/06/12 04:14:44;;;;;;;7.53;4.80;;;;;;;;;;5044434;28;25066;-75
2023/06/12 04:17:10;;;;;;;6.90;4.70;;;;;;;;;;5055245;28;25064;-73
2023/06/12 04:19:36;;;;;;;6.90;5.38;;;;;;;;;;5056797;28;25159;-73
2023/06/12 04:22:02;;;;;;;8.65;5.07;;;;;;;;;;5047142;28;25060;-73
2023/06/12 04:24:30;;;;;;;6.43;4.82;;;;;;;;;;5042155;28;25090;-73
2023/06/12 04:27:01;;;;;;;7.63;5.03;;;;;;;;;;5041041;28;25065;-73
2023/06/12 04:29:32;;;;;;;7.75;4.90;;;;;;;;;;5040579;28;25151;-72
2023/06/12 04:31:59;;;;;;;9.75;5.22;;;;;;;;;;5041131;28;25069;-73
2023/06/12 04:34:25;;;;;;;9.00;5.22;;;;;;;;;;5041646;28;25108;-74
2023/06/12 04:36:52;;;;;;;12.18;5.40;;;;;;;;;;5043721;28;25147;-71
2023/06/12 04:39:19;;;;;;;8.30;5.45;;;;;;;;;;5043091;28;25050;-73
2023/06/12 04:41:47;;;;;;;6.43;4.90;;;;;;;;;;5043170;28;25067;-74
2023/06/12 04:44:14;;;;;;;5.85;4.43;;;;;;;;;;5044010;28;25097;-74
2023/06/12 04:46:40;;;;;;;8.07;5.40;;;;;;;;;;5045179;28;25078;-74
2023/06/12 04:49:06;;;;;;;12.00;6.10;;;;;;;;;;5043035;28;25155;-74
2023/06/12 04:51:32;;;;;;;8.13;5.10;;;;;;;;;;5043063;28;25087;-74
2023/06/12 04:54:01;;;;;;;11.90;5.45;;;;;;;;;;5042256;28;25058;-72
2023/06/12 04:56:27;;;;;;;11.77;4.85;;;;;;;;;;5043688;28;25117;-75
2023/06/12 04:58:55;;;;;;;7.47;4.97;;;;;;;;;;5042345;28;25066;-73
2023/06/12 05:01:24;;;;;;;8.77;5.50;;;;;;;;;;5041236;28;25077;-73
2023/06/12 05:03:50;;;;;;;7.07;5.60;;;;;;;;;;5040698;28;25070;-72
2023/06/12 05:06:16;;;;;;;8.68;5.70;;;;;;;;;;5045016;28;25066;-74
2023/06/12 05:08:42;;;;;;;9.43;5.68;;;;;;;;;;5042388;28;25058;-72
2023/06/12 05:11:08;;;;;;;8.00;6.10;;;;;;;;;;5040585;28;25071;-74
2023/06/12 05:13:35;;;;;;;7.72;5.57;;;;;;;;;;5041304;28;25062;-76
2023/06/12 05:16:01;;;;;;;9.93;5.35;;;;;;;;;;5042396;28;25070;-73
2023/06/12 05:18:28;;;;;;;9.10;6.03;;;;;;;;;;5042143;28;25125;-73
2023/06/12 05:20:54;;;;;;;8.90;5.60;;;;;;;;;;5043783;28;25066;-72
2023/06/12 05:23:20;;;;;;;8.20;5.35;;;;;;;;;;5057135;28;25077;-72
2023/06/12 05:25:46;;;;;;;9.75;5.60;;;;;;;;;;5063940;28;25074;-72
2023/06/12 05:28:13;;;;;;;11.82;6.18;;;;;;;;;;5063284;28;25071;-71
2023/06/12 05:30:39;;;;;;;7.00;5.03;;;;;;;;;;5060965;28;25142;-72
2023/06/12 05:33:06;;;;;;;60.95;54.85;;;;;;;;;;5061189;28;25060;-72
2023/06/12 05:35:33;;;;;;;7.68;5.25;;;;;;;;;;5064043;28;25129;-72
2023/06/12 05:37:59;;;;;;;6.43;4.43;;;;;;;;;;5059797;28;25171;-71
2023/06/12 05:40:25;;;;;;;5.65;4.38;;;;;;;;;;5057051;28;25103;-72
2023/06/12 05:42:51;;;;;;;6.40;4.78;;;;;;;;;;5057916;28;25090;-75
2023/06/12 05:45:17;;;;;;;7.95;5.07;;;;;;;;;;5059603;28;25102;-73
2023/06/12 05:47:43;;;;;;;10.75;5.53;;;;;;;;;;5062979;28;25060;-74
2023/06/12 05:50:09;;;;;;;7.13;4.90;;;;;;;;;;5062081;28;25052;-76
2023/06/12 05:52:36;;;;;;;9.68;5.70;;;;;;;;;;5060868;28;25055;-72
2023/06/12 05:55:02;;;;;;;8.27;5.28;;;;;;;;;;5058403;28;25094;-72
2023/06/12 05:57:28;;;;;;;9.43;6.13;;;;;;;;;;5059997;28;25078;-72
2023/06/12 05:59:54;;;;;;;7.22;4.75;;;;;;;;;;5060502;28;25096;-73
2023/06/12 06:02:20;;;;;;;8.85;5.45;;;;;;;;;;5040524;28;25177;-74
2023/06/12 06:04:47;;;;;;;6.25;4.93;;;;;;;;;;5060608;28;25144;-72
2023/06/12 06:07:13;;;;;;;8.57;5.30;;;;;;;;;;5057366;28;25054;-73
2023/06/12 06:09:38;;;;;;;5.82;4.75;;;;;;;;;;5063712;28;25038;-72
2023/06/12 06:12:05;;;;;;;6.38;4.65;;;;;;;;;;5057671;28;25146;-71
2023/06/12 06:14:31;;;;;;;8.02;5.03;;;;;;;;;;5061595;28;25052;-72
2023/06/12 06:16:57;;;;;;;13.45;5.55;;;;;;;;;;5049423;28;25103;-71
2023/06/12 06:19:23;;;;;;;9.85;5.40;;;;;;;;;;5047592;28;25077;-74
2023/06/12 06:21:49;;;;;;;11.95;5.07;;;;;;;;;;5060256;28;25057;-72
2023/06/12 06:24:15;;;;;;;10.05;4.97;;;;;;;;;;5039080;28;25072;-72
2023/06/12 06:26:41;;;;;;;8.50;5.00;;;;;;;;;;5059120;28;25116;-74
2023/06/12 06:29:07;;;;;;;8.30;5.30;;;;;;;;;;5058778;28;25182;-73
2023/06/12 06:31:33;;;;;;;8.55;5.10;;;;;;;;;;5061001;28;25061;-73
2023/06/12 06:33:58;;;;;;;9.50;4.80;;;;;;;;;;5058544;28;25064;-73
2023/06/12 06:36:24;;;;;;;6.78;5.38;;;;;;;;;;5045903;28;25186;-75
2023/06/12 06:38:51;;;;;;;7.93;4.60;;;;;;;;;;5042249;28;25113;-76
2023/06/12 06:41:17;;;;;;;10.68;5.50;;;;;;;;;;5039332;28;25054;-74
2023/06/12 06:43:43;;;;;;;9.30;4.55;;;;;;;;;;5038694;28;25057;-74
2023/06/12 06:46:09;;;;;;;7.82;4.43;;;;;;;;;;5041561;28;25068;-74
2023/06/12 06:48:35;;;;;;;6.63;5.05;;;;;;;;;;5040990;28;25063;-73
2023/06/12 06:51:02;;;;;;;11.57;5.60;;;;;;;;;;5044389;28;25079;-73
2023/06/12 06:53:28;;;;;;;7.93;3.92;;;;;;;;;;5039341;28;25066;-73
2023/06/12 06:55:54;;;;;;;7.28;4.90;;;;;;;;;;5042463;28;25061;-74
2023/06/12 06:58:20;;;;;;;7.93;5.18;;;;;;;;;;5040481;28;24951;-72
2023/06/12 07:00:46;;;;;;;6.95;4.25;;;;;;;;;;5034474;28;25152;-73
2023/06/12 07:03:12;;;;;;;8.13;4.68;;;;;;;;;;5030472;28;25102;-72
2023/06/12 07:05:38;;;;;;;7.80;4.95;;;;;;;;;;5031252;28;25789;-71
2023/06/12 07:08:04;;;;;;;6.65;4.60;;;;;;;;;;5033608;28;25174;-71
2023/06/12 07:10:30;;;;;;;10.30;4.63;;;;;;;;;;5033421;28;25051;-72
2023/06/12 07:12:59;;;;;;;8.43;4.25;;;;;;;;;;5033523;28;25067;-72
2023/06/12 07:15:25;;;;;;;7.68;3.85;;;;;;;;;;5034098;28;25072;-71
2023/06/12 07:17:52;;;;;;;6.57;4.40;;;;;;;;;;5035214;28;25044;-71
2023/06/12 07:20:18;;;;;;;8.95;4.63;;;;;;;;;;5034517;28;25077;-73
2023/06/12 07:22:44;;;;;;;4.93;4.38;;;;;;;;;;5033711;28;25171;-72
2023/06/12 07:25:10;;;;;;;6.43;3.95;;;;;;;;;;5031927;28;25064;-72
2023/06/12 07:27:36;;;;;;;9.75;4.45;;;;;;;;;;5032808;28;25150;-71
2023/06/12 07:30:02;;;;;;;8.20;4.18;;;;;;;;;;5031540;28;25060;-73
2023/06/12 07:32:28;;;;;;;11.02;6.07;;;;;;;;;;5033397;28;25063;-72
2023/06/12 07:34:55;;;;;;;7.32;4.38;;;;;;;;;;5034165;28;25064;-72
2023/06/12 07:37:21;;;;;;;7.05;4.85;;;;;;;;;;5033769;28;25157;-72
2023/06/12 07:39:47;;;;;;;7.10;4.63;;;;;;;;;;5033874;28;25181;-73
2023/06/12 07:42:14;;;;;;;9.15;4.78;;;;;;;;;;5032978;28;25073;-73
2023/06/12 07:44:40;;;;;;;6.90;4.53;;;;;;;;;;5035602;28;25045;-74
2023/06/12 07:47:06;;;;;;;7.30;4.15;;;;;;;;;;5033897;28;25092;-72
2023/06/12 07:49:32;;;;;;;6.90;4.28;;;;;;;;;;5033343;28;25161;-72
2023/06/12 07:51:58;;;;;;;6.05;4.35;;;;;;;;;;5032695;28;25100;-69
2023/06/12 07:54:24;;;;;;;5.50;3.92;;;;;;;;;;5030475;28;25065;-71
2023/06/12 07:56:53;;;;;;;9.73;5.05;;;;;;;;;;5032524;28;25092;-70
2023/06/12 07:59:20;;;;;;;8.45;5.45;;;;;;;;;;5032786;28;25077;-72
2023/06/12 08:01:46;;;;;;;9.93;4.70;;;;;;;;;;5036343;28;25067;-71
2023/06/12 08:04:12;;;;;;;7.65;4.38;;;;;;;;;;5035816;28;25057;-71
2023/06/12 08:06:39;;;;;;;8.75;4.50;;;;;;;;;;5036178;28;25097;-71
2023/06/12 08:09:05;;;;;;;9.93;4.28;;;;;;;;;;5032470;28;25052;-72
2023/06/12 08:11:31;;;;;;;9.13;4.10;;;;;;;;;;5034231;28;25074;-71
2023/06/12 08:13:57;;;;;;;6.75;4.20;;;;;;;;;;5032949;28;25055;-69
2023/06/12 08:16:24;;;;;;;9.38;4.50;;;;;;;;;;5033452;28;25057;-71
2023/06/12 08:18:50;;;;;;;8.27;4.97;;;;;;;;;;5035122;28;25137;-70
2023/06/12 08:21:16;;;;;;;7.82;4.13;;;;;;;;;;5033859;28;25061;-71
2023/06/12 08:23:42;;;;;;;5.45;4.43;;;;;;;;;;5033693;28;25047;-71
2023/06/12 08:26:08;;;;;;;7.65;4.43;;;;;;;;;;5034463;28;25104;-73
2023/06/12 08:28:35;;;;;;;13.40;5.00;;;;;;;;;;5031663;28;25075;-70
2023/06/12 08:31:01;;;;;;;9.23;4.38;;;;;;;;;;5032261;28;25089;-73
2023/06/12 08:33:28;;;;;;;8.15;4.68;;;;;;;;;;5030496;28;25057;-72
2023/06/12 08:35:55;;;;;;;7.07;4.00;;;;;;;;;;5035648;28;25062;-70
2023/06/12 08:38:21;;;;;;;8.48;4.35;;;;;;;;;;5033899;28;25082;-71
2023/06/12 08:40:47;;;;;;;5.95;4.38;;;;;;;;;;5031249;28;25109;-73
2023/06/12 08:43:12;;;;;;;10.07;4.97;;;;;;;;;;5040306;28;25144;-70
2023/06/12 08:45:43;;;;;;;6.50;4.28;;;;;;;;;;5038139;28;25081;-71
2023/06/12 08:48:09;;;;;;;6.15;4.35;;;;;;;;;;5037932;28;25073;-71
2023/06/12 08:50:35;;;;;;;6.03;4.22;;;;;;;;;;5022845;28;25052;-71
2023/06/12 08:53:03;;;;;;;8.90;4.57;;;;;;;;;;5050384;28;25067;-72
2023/06/12 08:55:29;;;;;;;18.92;4.70;;;;;;;;;;5058825;28;25080;-74
2023/06/12 08:57:56;;;;;;;40.65;5.95;;;;;;;;;;5052487;28;25093;-71
2023/06/12 09:00:22;;;;;;;7.03;4.10;;;;;;;;;;5052844;28;25046;-71
2023/06/12 09:02:54;;;;;;;7.43;4.18;;;;;;;;;;5049610;28;25067;-72
2023/06/12 09:05:21;;;;;;;7.15;4.47;;;;;;;;;;5052929;28;25047;-72
2023/06/12 09:07:47;;;;;;;6.78;4.07;;;;;;;;;;5049012;28;25064;-70
2023/06/12 09:10:14;;;;;;;13.77;4.95;;;;;;;;;;5053899;28;25056;-72
2023/06/12 09:12:43;;;;;;;6.25;4.45;;;;;;;;;;5053264;28;25072;-74
2023/06/12 09:15:09;;;;;;;8.60;4.50;;;;;;;;;;5053687;28;25064;-73
2023/06/12 09:17:37;;;;;;;9.02;4.20;;;;;;;;;;5050987;28;25078;-74
2023/06/12 09:20:05;;;;;;;10.20;4.30;;;;;;;;;;5053894;28;25089;-72
2023/06/12 09:22:31;;;;;;;4.70;3.80;;;;;;;;;;5053326;28;25109;-72
2023/06/12 09:24:57;;;;;;;9.15;4.65;;;;;;;;;;5054574;28;25061;-73
2023/06/12 09:27:23;;;;;;;7.93;4.43;;;;;;;;;;5053032;28;25142;-72
2023/06/12 09:29:49;;;;;;;5.25;4.22;;;;;;;;;;5056585;28;25066;-72
2023/06/12 09:32:15;;;;;;;6.38;4.20;;;;;;;;;;5052570;28;25073;-75
2023/06/12 09:34:49;;;;;;;11.02;4.40;;;;;;;;;;5054737;28;25083;-73
2023/06/12 09:37:16;;;;;;;8.00;4.43;;;;;;;;;;5052752;28;25095;-72
2023/06/12 09:39:43;;;;;;;9.93;4.50;;;;;;;;;;5055952;28;25098;-71
2023/06/12 09:42:13;;;;;;;6.53;4.25;;;;;;;;;;5053316;28;25149;-72
2023/06/12 09:44:39;;;;;;;4.30;3.58;;;;;;;;;;5054543;28;25139;-72
2023/06/12 09:47:05;;;;;;;5.72;4.32;;;;;;;;;;5053369;28;25084;-72
2023/06/12 09:49:32;;;;;;;4.60;4.13;;;;;;;;;;5055943;28;25072;-71
2023/06/12 09:52:01;;;;;;;10.05;4.13;;;;;;;;;;5054109;28;25157;-71
2023/06/12 09:54:28;;;;;;;5.00;4.25;;;;;;;;;;5053509;28;25075;-72
2023/06/12 09:56:57;;;;;;;5.53;3.67;;;;;;;;;;5034152;28;25083;-71
2023/06/12 09:59:27;;;;;;;5.70;3.70;;;;;;;;;;5037762;28;25138;-72
2023/06/12 10:01:55;;;;;;;4.05;3.65;;;;;;;;;;5038708;28;25056;-71
2023/06/12 10:04:31;;;;;;;4.80;3.90;;;;;;;;;;5035013;28;25156;-70
2023/06/12 10:07:02;;;;;;;9.13;4.57;;;;;;;;;;5036868;28;25051;-74
2023/06/12 10:09:29;;;;;;;7.32;4.20;;;;;;;;;;5036248;28;25049;-72
2023/06/12 10:11:56;;;;;;;4.65;3.70;;;;;;;;;;5042004;28;25083;-70
2023/06/12 10:14:26;;;;;;;7.75;4.35;;;;;;;;;;5055212;28;25085;-71
2023/06/12 10:16:52;;;;;;;4.97;3.72;;;;;;;;;;5055723;28;25100;-73
2023/06/12 10:19:18;;;;;;;8.07;3.47;;;;;;;;;;5054338;28;25054;-72
2023/06/12 10:21:45;;;;;;;5.78;3.45;;;;;;;;;;5058991;28;25123;-72
2023/06/12 10:24:12;;;;;;;6.47;3.28;;;;;;;;;;5056103;28;25141;-72
2023/06/12 10:26:38;;;;;;;6.97;3.47;;;;;;;;;;5057850;28;25067;-72
2023/06/12 10:29:23;;;;;;;4.82;3.00;;;;;;;;;;5056949;28;25125;-72
2023/06/12 10:31:49;;;;;;;4.30;2.97;;;;;;;;;;5060405;28;25148;-71
2023/06/12 10:34:16;;;;;;;3.78;2.95;;;;;;;;;;5057388;28;25112;-72
2023/06/12 10:36:47;;;;;;;5.13;3.30;;;;;;;;;;5057148;28;25124;-70
2023/06/12 10:39:15;;;;;;;5.85;3.50;;;;;;;;;;5058314;28;25060;-72
2023/06/12 10:41:51;;;;;;;7.18;3.75;;;;;;;;;;5058928;28;25057;-72
2023/06/12 10:44:36;;;;;;;5.78;3.30;;;;;;;;;;5059910;28;25063;-71
2023/06/12 10:47:02;;;;;;;7.57;3.40;;;;;;;;;;5062327;28;25133;-73
2023/06/12 10:49:29;;;;;;;7.90;3.30;;;;;;;;;;5060029;28;25057;-71
2023/06/12 10:51:55;;;;;;;5.15;3.30;;;;;;;;;;5060191;28;25051;-73
2023/06/12 10:54:27;;;;;;;3.33;2.78;;;;;;;;;;5058446;28;25143;-72
2023/06/12 10:56:58;;;;;;;5.28;3.42;;;;;;;;;;5062220;28;25058;-72
2023/06/12 10:59:38;;;;;;;3.88;3.30;;;;;;;;;;5052377;28;25059;-71
2023/06/12 11:02:04;;;;;;;3.88;3.45;;;;;;;;;;5059390;28;25050;-72
2023/06/12 11:04:38;;;;;;;9.10;3.28;;;;;;;;;;5059327;28;25060;-74
2023/06/12 11:07:05;;;;;;;6.80;3.72;;;;;;;;;;5057749;28;25059;-74
2023/06/12 11:09:40;;;;;;;6.10;3.35;;;;;;;;;;5061239;28;25069;-72
2023/06/12 11:12:07;;;;;;;4.50;2.85;;;;;;;;;;5061627;28;25064;-73
2023/06/12 11:14:33;;;;;;;5.97;3.03;;;;;;;;;;5059139;28;25128;-72
2023/06/12 11:16:59;;;;;;;3.90;3.10;;;;;;;;;;5058715;28;25141;-72
2023/06/12 11:19:28;;;;;;;5.35;2.08;;;;;;;;;;5056274;28;25050;-70
2023/06/12 11:21:57;;;;;;;5.95;2.80;;;;;;;;;;5057494;28;25155;-71
2023/06/12 11:24:23;;;;;;;4.40;2.80;;;;;;;;;;5058804;28;25178;-71
2023/06/12 11:26:50;;;;;;;11.38;3.53;;;;;;;;;;5059656;28;25055;-71
2023/06/12 11:29:17;;;;;;;3.90;2.78;;;;;;;;;;5060747;28;25133;-70
2023/06/12 11:31:51;;;;;;;3.92;2.85;;;;;;;;;;5063398;28;25100;-71
2023/06/12 11:34:17;;;;;;;5.03;3.05;;;;;;;;;;5057764;28;25094;-72
2023/06/12 11:36:44;;;;;;;4.03;2.60;;;;;;;;;;5058354;28;25141;-71
2023/06/12 11:39:17;;;;;;;9.75;3.20;;;;;;;;;;5058255;28;25074;-70
2023/06/12 11:41:43;;;;;;;6.88;3.55;;;;;;;;;;5057545;28;25085;-70
2023/06/12 11:44:09;;;;;;;4.57;2.83;;;;;;;;;;5056668;28;25110;-72
2023/06/12 11:46:35;;;;;;;5.30;2.90;;;;;;;;;;5061515;28;25064;-72
2023/06/12 11:49:01;;;;;;;4.00;2.40;;;;;;;;;;5058567;28;25073;-70
2023/06/12 11:51:27;;;;;;;4.22;3.42;;;;;;;;;;5061035;28;25077;-71
2023/06/12 11:53:53;;;;;;;4.28;3.08;;;;;;;;;;5039149;28;25063;-73
2023/06/12 11:56:21;;;;;;;6.55;3.38;;;;;;;;;;5059729;28;25050;-70
2023/06/12 11:58:48;;;;;;;4.60;2.75;;;;;;;;;;5058029;28;25052;-69
2023/06/12 12:01:23;;;;;;;4.55;3.20;;;;;;;;;;5052995;28;25054;-72
2023/06/12 12:03:49;;;;;;;3.95;2.58;;;;;;;;;;5036240;28;25081;-71
2023/06/12 12:06:16;;;;;;;3.25;2.95;;;;;;;;;;5032039;28;25132;-72
2023/06/12 12:08:42;;;;;;;3.28;2.80;;;;;;;;;;5051320;28;25108;-71
2023/06/12 12:11:16;;;;;;;5.95;3.50;;;;;;;;;;5052820;28;25066;-71
2023/06/12 12:13:49;;;;;;;5.93;3.58;;;;;;;;;;5042057;28;25074;-74
2023/06/12 12:16:15;;;;;;;10.77;3.78;;;;;;;;;;5033669;28;25132;-72
2023/06/12 12:18:44;;;;;;;8.10;4.03;;;;;;;;;;5033388;28;25064;-72
2023/06/12 12:21:14;;;;;;;6.15;3.65;;;;;;;;;;5035341;28;25060;-71
2023/06/12 12:23:41;;;;;;;3.28;2.97;;;;;;;;;;5033892;28;25047;-71
2023/06/12 12:26:09;;;;;;;5.38;3.80;;;;;;;;;;5031353;28;25109;-71
2023/06/12 12:28:35;;;;;;;5.15;3.40;;;;;;;;;;5032178;28;25093;-71
2023/06/12 12:31:01;;;;;;;6.25;3.78;;;;;;;;;;5032787;28;25139;-71
2023/06/12 12:33:27;;;;;;;9.77;3.67;;;;;;;;;;5030277;28;25071;-72
2023/06/12 12:35:53;;;;;;;4.88;3.65;;;;;;;;;;5033105;28;25058;-71
2023/06/12 12:38:19;;;;;;;4.90;3.40;;;;;;;;;;5033353;28;25113;-73
2023/06/12 12:40:45;;;;;;;6.55;3.28;;;;;;;;;;5035825;28;25143;-72
2023/06/12 12:43:10;;;;;;;6.50;3.25;;;;;;;;;;5031781;28;25119;-74
2023/06/12 12:45:36;;;;;;;4.25;3.78;;;;;;;;;;5033771;28;25076;-72
2023/06/12 12:48:02;;;;;;;7.38;3.97;;;;;;;;;;5033075;28;25068;-73
2023/06/12 12:50:28;;;;;;;7.82;3.45;;;;;;;;;;5038646;28;25128;-72
2023/06/12 12:52:54;;;;;;;7.50;3.15;;;;;;;;;;5030810;28;25052;-72
2023/06/12 12:55:20;;;;;;;3.60;3.22;;;;;;;;;;5044098;28;25054;-71
2023/06/12 12:57:47;;;;;;;3.03;2.67;;;;;;;;;;5035529;28;25085;-70
2023/06/12 13:00:14;;;;;;;5.78;3.47;;;;;;;;;;5037278;28;25135;-71
2023/06/12 13:02:41;;;;;;;4.75;3.03;;;;;;;;;;5034697;28;25096;-71
2023/06/12 13:05:09;;;;;;;7.00;3.63;;;;;;;;;;5034916;28;25056;-70
2023/06/12 13:07:36;;;;;;;4.97;3.45;;;;;;;;;;5035195;28;25116;-71
2023/06/12 13:10:03;;;;;;;5.78;3.72;;;;;;;;;;5037717;28;25115;-71
2023/06/12 13:12:29;;;;;;;7.22;3.67;;;;;;;;;;5037192;28;25160;-70
2023/06/12 13:14:55;;;;;;;5.13;3.00;;;;;;;;;;5038516;28;25095;-74
2023/06/12 13:17:21;;;;;;;4.75;3.20;;;;;;;;;;5035883;28;25053;-72
2023/06/12 13:19:47;;;;;;;4.35;3.22;;;;;;;;;;5035054;28;25424;-74
2023/06/12 13:22:13;;;;;;;6.03;3.20;;;;;;;;;;5034870;28;25068;-72
2023/06/12 13:24:39;;;;;;;6.40;3.72;;;;;;;;;;5034706;28;25098;-73
2023/06/12 13:27:07;;;;;;;6.25;2.97;;;;;;;;;;5037257;28;25174;-72
2023/06/12 13:29:33;;;;;;;4.90;2.95;;;;;;;;;;5036489;28;26186;-72
2023/06/12 13:31:59;;;;;;;4.40;3.85;;;;;;;;;;5034160;28;25099;-71
2023/06/12 13:34:25;;;;;;;3.72;3.33;;;;;;;;;;5033670;28;25142;-72
2023/06/12 13:36:51;;;;;;;6.22;3.42;;;;;;;;;;5036240;28;25054;-72
2023/06/12 13:39:18;;;;;;;4.80;3.50;;;;;;;;;;5037247;28;25194;-72
2023/06/12 13:41:45;;;;;;;6.32;3.40;;;;;;;;;;5037041;28;25099;-72
2023/06/12 13:44:11;;;;;;;4.68;3.53;;;;;;;;;;5035078;28;25080;-71
2023/06/12 13:46:37;;;;;;;6.40;3.28;;;;;;;;;;5038717;28;25112;-72
2023/06/12 13:49:04;;;;;;;3.63;3.33;;;;;;;;;;5035751;28;25132;-71
2023/06/12 13:51:35;;;;;;;6.05;3.30;;;;;;;;;;5038663;28;25092;-71
2023/06/12 13:54:02;;;;;;;5.63;3.83;;;;;;;;;;5032787;28;25143;-70
2023/06/12 13:56:28;;;;;;;6.90;3.03;;;;;;;;;;5036065;28;25087;-71
2023/06/12 13:58:55;;;;;;;5.65;3.28;;;;;;;;;;5035138;28;25075;-74
2023/06/12 14:01:21;;;;;;;9.98;3.47;;;;;;;;;;5036301;28;25047;-72
2023/06/12 14:03:47;;;;;;;4.10;3.55;;;;;;;;;;5032409;28;25074;-73
2023/06/12 14:06:13;;;;;;;4.63;3.70;;;;;;;;;;5047497;28;25125;-72
2023/06/12 14:08:42;;;;;;;6.65;3.67;;;;;;;;;;5034406;28;25074;-73
2023/06/12 14:11:08;;;;;;;7.78;4.20;;;;;;;;;;5034767;28;25212;-73
2023/06/12 14:13:35;;;;;;;5.57;3.83;;;;;;;;;;5034139;28;25060;-72
2023/06/12 14:16:02;;;;;;;5.88;4.10;;;;;;;;;;5034744;28;25048;-72
2023/06/12 14:18:28;;;;;;;7.32;4.22;;;;;;;;;;5034820;28;25069;-73
2023/06/12 14:20:55;;;;;;;5.13;4.28;;;;;;;;;;5022985;28;25083;-72
2023/06/12 14:23:21;;;;;;;5.18;3.92;;;;;;;;;;5035068;28;25073;-74
2023/06/12 14:25:47;;;;;;;4.18;3.47;;;;;;;;;;5035087;28;25054;-71
2023/06/12 14:28:13;;;;;;;5.28;3.72;;;;;;;;;;5032047;28;25058;-74
2023/06/12 14:30:39;;;;;;;5.93;4.40;;;;;;;;;;5036322;28;25065;-71
2023/06/12 14:33:05;;;;;;;7.10;3.90;;;;;;;;;;5033319;28;25074;-73
2023/06/12 14:35:31;;;;;;;5.18;3.95;;;;;;;;;;5035753;28;25048;-71
2023/06/12 14:37:57;;;;;;;8.75;4.38;;;;;;;;;;5030650;28;25075;-72
2023/06/12 14:40:23;;;;;;;6.70;4.05;;;;;;;;;;5033902;28;25079;-72